^^

NEARBY METAR REPORTS

KSQI - Sterling Rockfal, Illinois, USA
Distance from station: ESE 17mi, 27km
Updated: 08/17/2018 10:13am

 
Temperature: 72°F , 22°C
Dew Point: 68°F , 20°C
Humidity: 88%
2018/08/17 15:13 KSQI 171513Z AUTO 22/20 RMK AO2 PWINO RVRNO $
KCWI - Clinton Muni, Iowa, USA
Distance from station: W 17mi, 28km
Updated: 08/17/2018 9:56am
Overcast
Overcast
 Wind from NE
Wind: NE 7 mph , 11 km/h
Temperature: 70°F , 21°C
Dew Point: 70°F , 21°C
Humidity: 100%
Barometer: 29.98 inHg , 1015.2 hPa
Clouds: Overcast
Visibility: 10 miles , 16 km
Cloud details: Overcast 1100 ft
2018/08/17 14:56 KCWI 171456Z AUTO 04006KT 10SM OVC011 21/21 A2998 RMK AO2 SLP170 60001 T02110206 53001
KSFY - Savanna/Tritown, Illinois, USA
Distance from station: NNW 17mi, 28km
Updated: 08/17/2018 9:55am
Overcast
Overcast
 Wind from NE
Wind: NE 5 mph , 7 km/h
Temperature: 73°F , 23°C
Dew Point: 70°F , 21°C
Humidity: 89%
Barometer: 29.97 inHg , 1014.9 hPa
Clouds: Overcast
Visibility: 10 miles , 16 km
Cloud details: Partly Cloudy 1000 ft
Mostly Cloudy 1600 ft
Overcast 2500 ft
2018/08/17 14:55 KSFY 171455Z AUTO 04004KT 10SM SCT010 BKN016 OVC025 23/21 A2997 RMK AO2 LTG DSNT NE
KDVN - Davenport/Quad C, Iowa, USA
Distance from station: WSW 34mi, 55km
Updated: 08/17/2018 10:10am
Overcast
Overcast
 Wind from NNE
Wind: NNE 6 mph , 9 km/h
Temperature: 73°F , 23°C
Dew Point: 70°F , 21°C
Humidity: 89%
Barometer: 29.99 inHg , 1015.6 hPa
Clouds: Overcast
Visibility: 10 miles , 16 km
Cloud details: Partly Cloudy 700 ft
Mostly Cloudy 1300 ft
Overcast 2700 ft
2018/08/17 15:10 KDVN 171510Z AUTO 02005KT 10SM SCT007 BKN013 OVC027 23/21 A2999 RMK AO2 T02280206
KFEP - Freeport, Illinois, USA
Distance from station: NE 36mi, 58km
Updated: 08/17/2018 9:55am
Overcast
Overcast
 Wind from NE
Wind: NE 5 mph , 7 km/h
Temperature: 72°F , 22°C
Dew Point: 70°F , 21°C
Humidity: 94%
Barometer: 29.99 inHg , 1015.6 hPa
Clouds: Overcast
Visibility: 10 miles , 16 km
Cloud details: Overcast 900 ft
2018/08/17 14:55 KFEP 171455Z AUTO 04004KT 10SM OVC009 22/21 A2999 RMK AO2 LTG DSNT NE T02150207
KMLI - Moline/Quad City, Illinois, USA
Distance from station: SW 38mi, 61km
Updated: 08/17/2018 9:52am
Overcast
Overcast
 Wind from varies
Wind: varies 3 mph , 6 km/h
Temperature: 73°F , 23°C
Dew Point: 70°F , 21°C
Humidity: 89%
Barometer: 29.96 inHg , 1014.6 hPa
Clouds: Overcast
Visibility: 10 miles , 16 km
Cloud details: Few Clouds 900 ft
Mostly Cloudy 1400 ft
Overcast 4900 ft
2018/08/17 14:52 KMLI 171452Z VRB03KT 10SM FEW009 BKN014 OVC049 23/21 A2996 RMK AO2 SLP143 T02330206 50001
KRPJ - Rochelle/Koritz, Illinois, USA
Distance from station: E 46mi, 75km
Updated: 08/17/2018 9:55am
Overcast
Overcast
 Wind from NNE
Wind: NNE 6 mph , 9 km/h
Temperature: 70°F , 21°C
Dew Point: 66°F , 19°C
Humidity: 88%
Barometer: 29.97 inHg , 1014.9 hPa
Clouds: Overcast
Visibility: 10 miles , 16 km
Cloud details: Overcast 800 ft
2018/08/17 14:55 KRPJ 171455Z AUTO 02005KT 10SM OVC008 21/19 A2997 RMK AO2 LTG DSNT NE T02090193
KRFD - Rockford, Illinois, USA
Distance from station: ENE 52mi, 84km
Updated: 08/17/2018 9:54am
Overcast
Overcast
 Wind from NNW
Wind: NNW 6 mph , 9 km/h
Temperature: 72°F , 22°C
Dew Point: 66°F , 19°C
Humidity: 83%
Barometer: 29.97 inHg , 1014.9 hPa
Clouds: Overcast
Visibility: 8 miles , 13 km
Cloud details: Mostly Cloudy 600 ft
Overcast 1500 ft
2018/08/17 14:54 KRFD 171454Z 33005KT 8SM BKN006 OVC015 22/19 A2997 RMK AO2 SLP147 60000 T02170194 58001
KVYS - Peru, Illinois, USA
Distance from station: SE 54mi, 86km
Updated: 08/17/2018 9:55am
Overcast
Overcast
 Wind from NW
Wind: NW 8 mph , 13 km/h
Temperature: 73°F , 23°C
Dew Point: 70°F , 21°C
Humidity: 89%
Barometer: 29.96 inHg , 1014.6 hPa
Clouds: Overcast
Visibility: 10 miles , 16 km
Cloud details: Overcast 700 ft
2018/08/17 14:55 KVYS 171455Z AUTO 31007KT 10SM OVC007 23/21 A2996 RMK AO2 LTG DSNT NE T02300212
KDBQ - Dubuque, Iowa, USA
Distance from station: NW 55mi, 88km
Updated: 08/17/2018 9:53am
Partly Cloudy
Partly Cloudy
 Wind from NE
Wind: NE 8 mph , 13 km/h
Temperature: 72°F , 22°C
Dew Point: 68°F , 20°C
Humidity: 88%
Barometer: 30.00 inHg , 1015.9 hPa
Clouds: Partly Cloudy
Visibility: 10 miles , 16 km
Cloud details: Partly Cloudy 800 ft
2018/08/17 14:53 KDBQ 171453Z 04007KT 10SM SCT008 22/20 A3000 RMK AO2 SLP153 60004 T02220200 51005